sensor_id;sensor_type;location;lat;lon;timestamp;temperature;humidity
44894;DHT22;30625;52.206;21.030;2023-08-08T00:00:34;16.50;99.90
44894;DHT22;30625;52.206;21.030;2023-08-08T00:03:00;16.50;99.90
44894;DHT22;30625;52.206;21.030;2023-08-08T00:05:26;16.50;99.90
44894;DHT22;30625;52.206;21.030;2023-08-08T00:07:51;16.50;99.90
44894;DHT22;30625;52.206;21.030;2023-08-08T00:10:17;16.50;99.90
44894;DHT22;30625;52.206;21.030;2023-08-08T00:12:42;16.50;99.90
44894;DHT22;30625;52.206;21.030;2023-08-08T00:15:08;16.50;99.90
44894;DHT22;30625;52.206;21.030;2023-08-08T00:17:34;16.50;99.90
44894;DHT22;30625;52.206;21.030;2023-08-08T00:20:00;16.50;99.90
44894;DHT22;30625;52.206;21.030;2023-08-08T00:22:25;16.40;99.90
44894;DHT22;30625;52.206;21.030;2023-08-08T00:24:51;16.40;99.90
44894;DHT22;30625;52.206;21.030;2023-08-08T00:27:16;16.40;99.90
44894;DHT22;30625;52.206;21.030;2023-08-08T00:29:42;16.40;99.90
44894;DHT22;30625;52.206;21.030;2023-08-08T00:32:07;16.30;99.90
44894;DHT22;30625;52.206;21.030;2023-08-08T00:34:33;16.30;99.90
44894;DHT22;30625;52.206;21.030;2023-08-08T00:36:58;16.30;99.90
44894;DHT22;30625;52.206;21.030;2023-08-08T00:39:24;16.30;99.90
44894;DHT22;30625;52.206;21.030;2023-08-08T00:41:49;16.30;99.90
44894;DHT22;30625;52.206;21.030;2023-08-08T00:44:15;16.30;99.90
44894;DHT22;30625;52.206;21.030;2023-08-08T00:46:40;16.30;99.90
44894;DHT22;30625;52.206;21.030;2023-08-08T00:49:06;16.20;99.90
44894;DHT22;30625;52.206;21.030;2023-08-08T00:51:31;16.30;99.90
44894;DHT22;30625;52.206;21.030;2023-08-08T00:53:57;16.30;99.90
44894;DHT22;30625;52.206;21.030;2023-08-08T00:56:23;16.30;99.90
44894;DHT22;30625;52.206;21.030;2023-08-08T00:58:48;16.30;99.90
44894;DHT22;30625;52.206;21.030;2023-08-08T01:01:16;16.20;99.90
44894;DHT22;30625;52.206;21.030;2023-08-08T01:03:42;16.20;99.90
44894;DHT22;30625;52.206;21.030;2023-08-08T01:08:35;16.20;99.90
44894;DHT22;30625;52.206;21.030;2023-08-08T01:11:04;16.20;99.90
44894;DHT22;30625;52.206;21.030;2023-08-08T01:13:30;16.10;99.90
44894;DHT22;30625;52.206;21.030;2023-08-08T01:15:57;16.20;99.90
44894;DHT22;30625;52.206;21.030;2023-08-08T01:18:23;16.10;99.90
44894;DHT22;30625;52.206;21.030;2023-08-08T01:20:48;16.00;99.90
44894;DHT22;30625;52.206;21.030;2023-08-08T01:23:19;16.00;99.90
44894;DHT22;30625;52.206;21.030;2023-08-08T01:25:48;16.00;99.90
44894;DHT22;30625;52.206;21.030;2023-08-08T01:28:14;16.00;99.90
44894;DHT22;30625;52.206;21.030;2023-08-08T01:30:40;16.00;99.90
44894;DHT22;30625;52.206;21.030;2023-08-08T01:33:05;15.90;99.90
44894;DHT22;30625;52.206;21.030;2023-08-08T01:35:32;15.90;99.90
44894;DHT22;30625;52.206;21.030;2023-08-08T01:38:00;15.90;99.90
44894;DHT22;30625;52.206;21.030;2023-08-08T01:40:28;15.90;99.90
44894;DHT22;30625;52.206;21.030;2023-08-08T01:42:54;15.80;99.90
44894;DHT22;30625;52.206;21.030;2023-08-08T01:45:20;15.80;99.90
44894;DHT22;30625;52.206;21.030;2023-08-08T01:47:50;15.80;99.90
44894;DHT22;30625;52.206;21.030;2023-08-08T01:50:16;15.80;99.90
44894;DHT22;30625;52.206;21.030;2023-08-08T01:52:41;15.80;99.90
44894;DHT22;30625;52.206;21.030;2023-08-08T01:55:07;15.70;99.90
44894;DHT22;30625;52.206;21.030;2023-08-08T01:57:33;15.90;99.90
44894;DHT22;30625;52.206;21.030;2023-08-08T01:59:58;15.70;99.90
44894;DHT22;30625;52.206;21.030;2023-08-08T02:02:24;15.80;99.90
44894;DHT22;30625;52.206;21.030;2023-08-08T02:04:49;15.80;99.90
44894;DHT22;30625;52.206;21.030;2023-08-08T02:07:15;15.80;99.90
44894;DHT22;30625;52.206;21.030;2023-08-08T02:09:41;15.70;99.90
44894;DHT22;30625;52.206;21.030;2023-08-08T02:12:07;15.60;99.90
44894;DHT22;30625;52.206;21.030;2023-08-08T02:14:32;15.60;99.90
44894;DHT22;30625;52.206;21.030;2023-08-08T02:16:58;15.60;99.90
44894;DHT22;30625;52.206;21.030;2023-08-08T02:19:23;15.50;99.90
44894;DHT22;30625;52.206;21.030;2023-08-08T02:21:49;15.50;99.90
44894;DHT22;30625;52.206;21.030;2023-08-08T02:24:14;15.60;99.90
44894;DHT22;30625;52.206;21.030;2023-08-08T02:26:40;15.60;99.90
44894;DHT22;30625;52.206;21.030;2023-08-08T02:29:05;15.50;99.90
44894;DHT22;30625;52.206;21.030;2023-08-08T02:31:31;15.60;99.90
44894;DHT22;30625;52.206;21.030;2023-08-08T02:33:56;15.50;99.90
44894;DHT22;30625;52.206;21.030;2023-08-08T02:36:22;15.60;99.90
44894;DHT22;30625;52.206;21.030;2023-08-08T02:38:47;15.50;99.90
44894;DHT22;30625;52.206;21.030;2023-08-08T02:41:15;15.50;99.90
44894;DHT22;30625;52.206;21.030;2023-08-08T02:43:40;15.50;99.90
44894;DHT22;30625;52.206;21.030;2023-08-08T02:46:06;15.40;99.90
44894;DHT22;30625;52.206;21.030;2023-08-08T02:48:32;15.40;99.90
44894;DHT22;30625;52.206;21.030;2023-08-08T02:50:57;15.40;99.90
44894;DHT22;30625;52.206;21.030;2023-08-08T02:53:22;15.40;99.90
44894;DHT22;30625;52.206;21.030;2023-08-08T02:55:48;15.30;99.90
44894;DHT22;30625;52.206;21.030;2023-08-08T02:58:14;15.30;99.90
44894;DHT22;30625;52.206;21.030;2023-08-08T03:00:39;15.30;99.90
44894;DHT22;30625;52.206;21.030;2023-08-08T03:03:05;15.30;99.90
44894;DHT22;30625;52.206;21.030;2023-08-08T03:05:30;15.30;99.90
44894;DHT22;30625;52.206;21.030;2023-08-08T03:07:56;15.30;99.90
44894;DHT22;30625;52.206;21.030;2023-08-08T03:10:21;15.20;99.90
44894;DHT22;30625;52.206;21.030;2023-08-08T03:12:47;15.20;99.90
44894;DHT22;30625;52.206;21.030;2023-08-08T03:15:13;15.20;99.90
44894;DHT22;30625;52.206;21.030;2023-08-08T03:17:38;15.20;99.90
44894;DHT22;30625;52.206;21.030;2023-08-08T03:20:05;15.00;99.90
44894;DHT22;30625;52.206;21.030;2023-08-08T03:22:31;15.00;99.90
44894;DHT22;30625;52.206;21.030;2023-08-08T03:24:57;15.00;99.90
44894;DHT22;30625;52.206;21.030;2023-08-08T03:27:23;15.00;99.90
44894;DHT22;30625;52.206;21.030;2023-08-08T03:29:49;15.10;99.90
44894;DHT22;30625;52.206;21.030;2023-08-08T03:32:14;15.00;99.90
44894;DHT22;30625;52.206;21.030;2023-08-08T03:34:40;14.90;99.90
44894;DHT22;30625;52.206;21.030;2023-08-08T03:37:05;14.90;99.90
44894;DHT22;30625;52.206;21.030;2023-08-08T03:39:31;15.00;99.90
44894;DHT22;30625;52.206;21.030;2023-08-08T03:41:56;14.90;99.90
44894;DHT22;30625;52.206;21.030;2023-08-08T03:44:22;14.90;99.90
44894;DHT22;30625;52.206;21.030;2023-08-08T03:46:47;14.90;99.90
44894;DHT22;30625;52.206;21.030;2023-08-08T03:49:13;14.90;99.90
44894;DHT22;30625;52.206;21.030;2023-08-08T03:51:38;14.90;99.90
44894;DHT22;30625;52.206;21.030;2023-08-08T03:54:04;14.90;99.90
44894;DHT22;30625;52.206;21.030;2023-08-08T03:56:29;14.90;99.90
44894;DHT22;30625;52.206;21.030;2023-08-08T03:58:55;14.90;99.90
44894;DHT22;30625;52.206;21.030;2023-08-08T04:01:22;14.90;99.90
44894;DHT22;30625;52.206;21.030;2023-08-08T04:03:47;14.90;99.90
44894;DHT22;30625;52.206;21.030;2023-08-08T04:06:13;14.90;99.90
44894;DHT22;30625;52.206;21.030;2023-08-08T04:08:38;14.90;99.90
44894;DHT22;30625;52.206;21.030;2023-08-08T04:11:04;14.90;99.90
44894;DHT22;30625;52.206;21.030;2023-08-08T04:13:29;14.90;99.90
44894;DHT22;30625;52.206;21.030;2023-08-08T04:15:55;15.00;99.90
44894;DHT22;30625;52.206;21.030;2023-08-08T04:18:20;15.00;99.90
44894;DHT22;30625;52.206;21.030;2023-08-08T04:20:46;15.00;99.90
44894;DHT22;30625;52.206;21.030;2023-08-08T04:23:14;15.00;99.90
44894;DHT22;30625;52.206;21.030;2023-08-08T04:25:40;15.00;99.90
44894;DHT22;30625;52.206;21.030;2023-08-08T04:28:05;15.10;99.90
44894;DHT22;30625;52.206;21.030;2023-08-08T04:30:31;15.10;99.90
44894;DHT22;30625;52.206;21.030;2023-08-08T04:32:56;15.00;99.90
44894;DHT22;30625;52.206;21.030;2023-08-08T04:35:22;15.10;99.90
44894;DHT22;30625;52.206;21.030;2023-08-08T04:37:47;15.10;99.90
44894;DHT22;30625;52.206;21.030;2023-08-08T04:40:13;15.10;99.90
44894;DHT22;30625;52.206;21.030;2023-08-08T04:42:39;15.20;99.90
44894;DHT22;30625;52.206;21.030;2023-08-08T04:45:05;15.20;99.90
44894;DHT22;30625;52.206;21.030;2023-08-08T04:47:30;15.30;99.90
44894;DHT22;30625;52.206;21.030;2023-08-08T04:49:56;15.30;99.90
44894;DHT22;30625;52.206;21.030;2023-08-08T04:52:22;15.30;99.90
44894;DHT22;30625;52.206;21.030;2023-08-08T04:54:47;15.40;99.90
44894;DHT22;30625;52.206;21.030;2023-08-08T04:57:13;15.40;99.90
44894;DHT22;30625;52.206;21.030;2023-08-08T04:59:38;15.40;99.90
44894;DHT22;30625;52.206;21.030;2023-08-08T05:02:04;15.40;99.90
44894;DHT22;30625;52.206;21.030;2023-08-08T05:04:30;15.40;99.90
44894;DHT22;30625;52.206;21.030;2023-08-08T05:06:55;15.50;99.90
44894;DHT22;30625;52.206;21.030;2023-08-08T05:09:22;15.50;99.90
44894;DHT22;30625;52.206;21.030;2023-08-08T05:11:52;15.50;99.90
44894;DHT22;30625;52.206;21.030;2023-08-08T05:14:17;15.60;99.90
44894;DHT22;30625;52.206;21.030;2023-08-08T05:16:43;15.70;99.90
44894;DHT22;30625;52.206;21.030;2023-08-08T05:19:08;15.70;99.90
44894;DHT22;30625;52.206;21.030;2023-08-08T05:21:34;15.70;99.90
44894;DHT22;30625;52.206;21.030;2023-08-08T05:23:59;15.70;99.90
44894;DHT22;30625;52.206;21.030;2023-08-08T05:26:25;15.80;99.90
44894;DHT22;30625;52.206;21.030;2023-08-08T05:28:51;15.80;99.90
44894;DHT22;30625;52.206;21.030;2023-08-08T05:31:16;15.80;99.90
44894;DHT22;30625;52.206;21.030;2023-08-08T05:33:42;15.80;99.90
44894;DHT22;30625;52.206;21.030;2023-08-08T05:36:07;15.80;99.90
44894;DHT22;30625;52.206;21.030;2023-08-08T05:38:33;15.90;99.90
44894;DHT22;30625;52.206;21.030;2023-08-08T05:40:58;15.90;99.90
44894;DHT22;30625;52.206;21.030;2023-08-08T05:43:24;16.10;99.90
44894;DHT22;30625;52.206;21.030;2023-08-08T05:45:49;16.10;99.90
44894;DHT22;30625;52.206;21.030;2023-08-08T05:48:15;16.20;99.90
44894;DHT22;30625;52.206;21.030;2023-08-08T05:50:40;16.20;99.90
44894;DHT22;30625;52.206;21.030;2023-08-08T05:53:06;16.30;99.90
44894;DHT22;30625;52.206;21.030;2023-08-08T05:55:32;16.20;99.90
44894;DHT22;30625;52.206;21.030;2023-08-08T05:57:57;16.20;99.90
44894;DHT22;30625;52.206;21.030;2023-08-08T06:00:23;16.20;99.90
44894;DHT22;30625;52.206;21.030;2023-08-08T06:02:49;16.20;99.90
44894;DHT22;30625;52.206;21.030;2023-08-08T06:05:16;16.30;99.90
44894;DHT22;30625;52.206;21.030;2023-08-08T06:07:41;16.30;99.90
44894;DHT22;30625;52.206;21.030;2023-08-08T06:10:07;16.40;99.90
44894;DHT22;30625;52.206;21.030;2023-08-08T06:12:33;16.40;99.90
44894;DHT22;30625;52.206;21.030;2023-08-08T06:14:59;16.50;99.90
44894;DHT22;30625;52.206;21.030;2023-08-08T06:17:24;16.50;99.90
44894;DHT22;30625;52.206;21.030;2023-08-08T06:19:50;16.70;99.90
44894;DHT22;30625;52.206;21.030;2023-08-08T06:22:16;16.90;99.90
44894;DHT22;30625;52.206;21.030;2023-08-08T06:24:41;17.00;99.90
44894;DHT22;30625;52.206;21.030;2023-08-08T06:27:07;17.20;99.90
44894;DHT22;30625;52.206;21.030;2023-08-08T06:29:32;17.20;99.90
44894;DHT22;30625;52.206;21.030;2023-08-08T06:31:58;17.10;99.90
44894;DHT22;30625;52.206;21.030;2023-08-08T06:34:23;17.10;99.90
44894;DHT22;30625;52.206;21.030;2023-08-08T06:36:49;16.90;99.90
44894;DHT22;30625;52.206;21.030;2023-08-08T06:39:14;16.80;99.90
44894;DHT22;30625;52.206;21.030;2023-08-08T06:41:40;16.70;99.90
44894;DHT22;30625;52.206;21.030;2023-08-08T06:44:07;16.60;99.90
44894;DHT22;30625;52.206;21.030;2023-08-08T06:46:32;16.80;99.90
44894;DHT22;30625;52.206;21.030;2023-08-08T06:48:58;16.80;99.90
44894;DHT22;30625;52.206;21.030;2023-08-08T06:51:25;16.90;99.90
44894;DHT22;30625;52.206;21.030;2023-08-08T06:53:50;17.00;99.90
44894;DHT22;30625;52.206;21.030;2023-08-08T06:56:16;17.20;99.90
44894;DHT22;30625;52.206;21.030;2023-08-08T06:58:41;17.30;99.80
44894;DHT22;30625;52.206;21.030;2023-08-08T07:01:07;17.30;99.30
44894;DHT22;30625;52.206;21.030;2023-08-08T07:03:32;17.50;99.20
44894;DHT22;30625;52.206;21.030;2023-08-08T07:05:58;17.80;98.80
44894;DHT22;30625;52.206;21.030;2023-08-08T07:08:23;17.80;99.40
44894;DHT22;30625;52.206;21.030;2023-08-08T07:10:49;17.90;99.00
44894;DHT22;30625;52.206;21.030;2023-08-08T07:13:14;18.00;98.80
44894;DHT22;30625;52.206;21.030;2023-08-08T07:15:41;18.00;98.90
44894;DHT22;30625;52.206;21.030;2023-08-08T07:18:06;18.00;98.60
44894;DHT22;30625;52.206;21.030;2023-08-08T07:20:32;17.90;98.00
44894;DHT22;30625;52.206;21.030;2023-08-08T07:22:57;18.10;98.50
44894;DHT22;30625;52.206;21.030;2023-08-08T07:25:25;18.10;97.90
44894;DHT22;30625;52.206;21.030;2023-08-08T07:27:50;18.20;97.30
44894;DHT22;30625;52.206;21.030;2023-08-08T07:30:16;18.00;97.40
44894;DHT22;30625;52.206;21.030;2023-08-08T07:32:41;18.10;97.50
44894;DHT22;30625;52.206;21.030;2023-08-08T07:35:07;18.10;97.50
44894;DHT22;30625;52.206;21.030;2023-08-08T07:37:34;18.20;98.00
44894;DHT22;30625;52.206;21.030;2023-08-08T07:39:59;18.30;97.40
44894;DHT22;30625;52.206;21.030;2023-08-08T07:42:26;18.30;97.10
44894;DHT22;30625;52.206;21.030;2023-08-08T07:44:51;18.30;97.10
44894;DHT22;30625;52.206;21.030;2023-08-08T07:47:17;18.30;96.30
44894;DHT22;30625;52.206;21.030;2023-08-08T07:49:42;18.20;96.90
44894;DHT22;30625;52.206;21.030;2023-08-08T07:52:08;18.10;97.00
44894;DHT22;30625;52.206;21.030;2023-08-08T07:54:34;18.20;97.20
44894;DHT22;30625;52.206;21.030;2023-08-08T07:57:00;18.30;96.40
44894;DHT22;30625;52.206;21.030;2023-08-08T07:59:25;18.30;96.40
44894;DHT22;30625;52.206;21.030;2023-08-08T08:01:51;18.30;96.50
44894;DHT22;30625;52.206;21.030;2023-08-08T08:04:16;18.40;96.40
44894;DHT22;30625;52.206;21.030;2023-08-08T08:06:42;18.50;96.70
44894;DHT22;30625;52.206;21.030;2023-08-08T08:09:07;18.40;96.30
44894;DHT22;30625;52.206;21.030;2023-08-08T08:11:33;18.40;96.50
44894;DHT22;30625;52.206;21.030;2023-08-08T08:13:58;18.40;96.60
44894;DHT22;30625;52.206;21.030;2023-08-08T08:16:24;18.50;97.30
44894;DHT22;30625;52.206;21.030;2023-08-08T08:18:49;18.60;96.90
44894;DHT22;30625;52.206;21.030;2023-08-08T08:21:15;18.70;97.00
44894;DHT22;30625;52.206;21.030;2023-08-08T08:23:43;18.80;95.80
44894;DHT22;30625;52.206;21.030;2023-08-08T08:26:09;18.80;95.20
44894;DHT22;30625;52.206;21.030;2023-08-08T08:28:34;19.00;94.80
44894;DHT22;30625;52.206;21.030;2023-08-08T08:31:03;19.00;94.70
44894;DHT22;30625;52.206;21.030;2023-08-08T08:33:29;19.00;95.20
44894;DHT22;30625;52.206;21.030;2023-08-08T08:35:54;19.00;95.10
44894;DHT22;30625;52.206;21.030;2023-08-08T08:38:20;19.10;95.20
44894;DHT22;30625;52.206;21.030;2023-08-08T08:40:45;19.00;95.20
44894;DHT22;30625;52.206;21.030;2023-08-08T08:43:13;19.00;95.20
44894;DHT22;30625;52.206;21.030;2023-08-08T08:45:39;18.90;94.30
44894;DHT22;30625;52.206;21.030;2023-08-08T08:48:07;18.80;95.20
44894;DHT22;30625;52.206;21.030;2023-08-08T08:50:33;18.80;94.80
44894;DHT22;30625;52.206;21.030;2023-08-08T08:52:59;18.70;95.30
44894;DHT22;30625;52.206;21.030;2023-08-08T08:55:25;18.70;94.80
44894;DHT22;30625;52.206;21.030;2023-08-08T08:57:51;18.80;95.20
44894;DHT22;30625;52.206;21.030;2023-08-08T09:00:18;18.90;95.20
44894;DHT22;30625;52.206;21.030;2023-08-08T09:02:43;18.90;95.40
44894;DHT22;30625;52.206;21.030;2023-08-08T09:05:10;19.00;95.00
44894;DHT22;30625;52.206;21.030;2023-08-08T09:07:36;19.00;94.80
44894;DHT22;30625;52.206;21.030;2023-08-08T09:10:02;19.00;94.10
44894;DHT22;30625;52.206;21.030;2023-08-08T09:12:29;19.00;94.20
44894;DHT22;30625;52.206;21.030;2023-08-08T09:14:55;19.10;94.20
44894;DHT22;30625;52.206;21.030;2023-08-08T09:17:21;19.20;94.40
44894;DHT22;30625;52.206;21.030;2023-08-08T09:19:47;19.20;93.50
44894;DHT22;30625;52.206;21.030;2023-08-08T09:22:13;19.00;93.60
44894;DHT22;30625;52.206;21.030;2023-08-08T09:24:39;19.00;94.20
44894;DHT22;30625;52.206;21.030;2023-08-08T09:27:06;19.10;94.00
44894;DHT22;30625;52.206;21.030;2023-08-08T09:29:32;19.20;94.90
44894;DHT22;30625;52.206;21.030;2023-08-08T09:31:58;19.20;93.70
44894;DHT22;30625;52.206;21.030;2023-08-08T09:34:24;19.20;93.60
44894;DHT22;30625;52.206;21.030;2023-08-08T09:36:49;19.10;93.30
44894;DHT22;30625;52.206;21.030;2023-08-08T09:39:16;19.10;93.50
44894;DHT22;30625;52.206;21.030;2023-08-08T09:41:41;19.10;92.70
44894;DHT22;30625;52.206;21.030;2023-08-08T09:44:07;19.20;93.60
44894;DHT22;30625;52.206;21.030;2023-08-08T09:46:33;19.40;93.20
44894;DHT22;30625;52.206;21.030;2023-08-08T09:49:00;19.50;92.40
44894;DHT22;30625;52.206;21.030;2023-08-08T09:51:26;19.50;91.70
44894;DHT22;30625;52.206;21.030;2023-08-08T09:53:52;19.40;92.50
44894;DHT22;30625;52.206;21.030;2023-08-08T09:56:18;19.40;92.40
44894;DHT22;30625;52.206;21.030;2023-08-08T09:58:44;19.40;91.80
44894;DHT22;30625;52.206;21.030;2023-08-08T10:01:11;19.30;91.60
44894;DHT22;30625;52.206;21.030;2023-08-08T10:03:38;19.20;92.10
44894;DHT22;30625;52.206;21.030;2023-08-08T10:06:03;19.20;92.30
44894;DHT22;30625;52.206;21.030;2023-08-08T10:08:29;19.20;91.40
44894;DHT22;30625;52.206;21.030;2023-08-08T10:10:55;19.20;91.20
44894;DHT22;30625;52.206;21.030;2023-08-08T10:13:22;19.20;92.30
44894;DHT22;30625;52.206;21.030;2023-08-08T10:15:48;19.20;91.90
44894;DHT22;30625;52.206;21.030;2023-08-08T10:18:13;19.30;91.80
44894;DHT22;30625;52.206;21.030;2023-08-08T10:20:41;19.30;91.90
44894;DHT22;30625;52.206;21.030;2023-08-08T10:23:07;19.30;91.10
44894;DHT22;30625;52.206;21.030;2023-08-08T10:25:32;19.30;90.90
44894;DHT22;30625;52.206;21.030;2023-08-08T10:28:04;19.30;91.10
44894;DHT22;30625;52.206;21.030;2023-08-08T10:30:41;19.30;91.60
44894;DHT22;30625;52.206;21.030;2023-08-08T10:33:06;19.20;90.90
44894;DHT22;30625;52.206;21.030;2023-08-08T10:35:40;19.20;91.70
44894;DHT22;30625;52.206;21.030;2023-08-08T10:38:08;19.20;91.00
44894;DHT22;30625;52.206;21.030;2023-08-08T10:40:34;19.30;90.70
44894;DHT22;30625;52.206;21.030;2023-08-08T10:43:09;19.50;90.00
44894;DHT22;30625;52.206;21.030;2023-08-08T10:45:35;19.80;89.20
44894;DHT22;30625;52.206;21.030;2023-08-08T10:48:07;19.90;90.10
44894;DHT22;30625;52.206;21.030;2023-08-08T10:50:32;20.10;89.00
44894;DHT22;30625;52.206;21.030;2023-08-08T10:53:03;20.20;89.60
44894;DHT22;30625;52.206;21.030;2023-08-08T10:55:32;20.10;86.70
44894;DHT22;30625;52.206;21.030;2023-08-08T10:58:03;20.10;86.40
44894;DHT22;30625;52.206;21.030;2023-08-08T11:00:30;19.90;86.70
44894;DHT22;30625;52.206;21.030;2023-08-08T11:02:56;19.70;86.10
44894;DHT22;30625;52.206;21.030;2023-08-08T11:05:23;19.70;86.50
44894;DHT22;30625;52.206;21.030;2023-08-08T11:07:49;19.80;86.80
44894;DHT22;30625;52.206;21.030;2023-08-08T11:10:15;20.00;88.90
44894;DHT22;30625;52.206;21.030;2023-08-08T11:12:42;20.10;86.30
44894;DHT22;30625;52.206;21.030;2023-08-08T11:15:17;20.00;85.70
44894;DHT22;30625;52.206;21.030;2023-08-08T11:17:42;19.90;85.50
44894;DHT22;30625;52.206;21.030;2023-08-08T11:20:08;19.80;87.20
44894;DHT22;30625;52.206;21.030;2023-08-08T11:22:33;19.70;86.90
44894;DHT22;30625;52.206;21.030;2023-08-08T11:24:59;19.70;87.10
44894;DHT22;30625;52.206;21.030;2023-08-08T11:27:28;19.80;86.80
44894;DHT22;30625;52.206;21.030;2023-08-08T11:29:55;21.70;86.50
44894;DHT22;30625;52.206;21.030;2023-08-08T11:32:21;20.10;84.40
44894;DHT22;30625;52.206;21.030;2023-08-08T11:34:47;20.20;84.70
44894;DHT22;30625;52.206;21.030;2023-08-08T11:37:12;20.40;83.90
44894;DHT22;30625;52.206;21.030;2023-08-08T11:39:40;20.50;85.50
44894;DHT22;30625;52.206;21.030;2023-08-08T11:42:06;20.50;83.50
44894;DHT22;30625;52.206;21.030;2023-08-08T11:44:32;20.50;82.50
44894;DHT22;30625;52.206;21.030;2023-08-08T11:47:01;20.60;81.40
44894;DHT22;30625;52.206;21.030;2023-08-08T11:49:27;20.60;81.30
44894;DHT22;30625;52.206;21.030;2023-08-08T11:51:53;20.70;81.80
44894;DHT22;30625;52.206;21.030;2023-08-08T11:54:21;20.60;80.50
44894;DHT22;30625;52.206;21.030;2023-08-08T11:56:46;20.50;81.30
44894;DHT22;30625;52.206;21.030;2023-08-08T11:59:12;20.40;82.00
44894;DHT22;30625;52.206;21.030;2023-08-08T12:01:37;20.60;82.30
44894;DHT22;30625;52.206;21.030;2023-08-08T12:04:07;20.90;82.30
44894;DHT22;30625;52.206;21.030;2023-08-08T12:06:33;21.10;82.50
44894;DHT22;30625;52.206;21.030;2023-08-08T12:09:02;21.20;78.50
44894;DHT22;30625;52.206;21.030;2023-08-08T12:11:27;21.20;79.30
44894;DHT22;30625;52.206;21.030;2023-08-08T12:13:57;21.30;78.90
44894;DHT22;30625;52.206;21.030;2023-08-08T12:16:26;21.50;81.60
44894;DHT22;30625;52.206;21.030;2023-08-08T12:18:53;21.60;79.90
44894;DHT22;30625;52.206;21.030;2023-08-08T12:21:19;21.60;77.60
44894;DHT22;30625;52.206;21.030;2023-08-08T12:23:44;21.70;77.20
44894;DHT22;30625;52.206;21.030;2023-08-08T12:26:10;21.70;77.60
44894;DHT22;30625;52.206;21.030;2023-08-08T12:28:36;21.50;76.90
44894;DHT22;30625;52.206;21.030;2023-08-08T12:31:01;21.30;77.10
44894;DHT22;30625;52.206;21.030;2023-08-08T12:33:27;21.00;77.80
44894;DHT22;30625;52.206;21.030;2023-08-08T12:35:53;20.90;78.60
44894;DHT22;30625;52.206;21.030;2023-08-08T12:38:18;20.80;79.20
44894;DHT22;30625;52.206;21.030;2023-08-08T12:40:44;20.70;80.80
44894;DHT22;30625;52.206;21.030;2023-08-08T12:43:10;20.60;79.60
44894;DHT22;30625;52.206;21.030;2023-08-08T12:45:39;20.60;78.10
44894;DHT22;30625;52.206;21.030;2023-08-08T12:48:05;20.70;80.10
44894;DHT22;30625;52.206;21.030;2023-08-08T12:50:30;20.90;79.70
44894;DHT22;30625;52.206;21.030;2023-08-08T12:52:56;20.90;78.30
44894;DHT22;30625;52.206;21.030;2023-08-08T12:55:21;20.90;78.00
44894;DHT22;30625;52.206;21.030;2023-08-08T12:57:47;21.00;78.20
44894;DHT22;30625;52.206;21.030;2023-08-08T13:00:13;21.10;78.90
44894;DHT22;30625;52.206;21.030;2023-08-08T13:02:39;21.10;78.30
44894;DHT22;30625;52.206;21.030;2023-08-08T13:05:04;21.30;79.00
44894;DHT22;30625;52.206;21.030;2023-08-08T13:07:32;21.40;78.50
44894;DHT22;30625;52.206;21.030;2023-08-08T13:09:58;21.40;76.90
44894;DHT22;30625;52.206;21.030;2023-08-08T13:12:23;21.50;76.30
44894;DHT22;30625;52.206;21.030;2023-08-08T13:14:49;21.40;74.60
44894;DHT22;30625;52.206;21.030;2023-08-08T13:17:14;21.40;75.40
44894;DHT22;30625;52.206;21.030;2023-08-08T13:19:40;21.30;75.10
44894;DHT22;30625;52.206;21.030;2023-08-08T13:22:06;21.20;75.20
44894;DHT22;30625;52.206;21.030;2023-08-08T13:24:32;21.00;76.60
44894;DHT22;30625;52.206;21.030;2023-08-08T13:26:57;20.90;76.80
44894;DHT22;30625;52.206;21.030;2023-08-08T13:29:23;20.80;77.70
44894;DHT22;30625;52.206;21.030;2023-08-08T13:31:49;20.70;77.80
44894;DHT22;30625;52.206;21.030;2023-08-08T13:34:14;20.60;78.10
44894;DHT22;30625;52.206;21.030;2023-08-08T13:36:40;20.50;77.70
44894;DHT22;30625;52.206;21.030;2023-08-08T13:39:06;20.40;78.60
44894;DHT22;30625;52.206;21.030;2023-08-08T13:41:31;20.30;79.20
44894;DHT22;30625;52.206;21.030;2023-08-08T13:43:57;20.30;77.70
44894;DHT22;30625;52.206;21.030;2023-08-08T13:46:22;20.20;79.00
44894;DHT22;30625;52.206;21.030;2023-08-08T13:48:48;20.10;79.90
44894;DHT22;30625;52.206;21.030;2023-08-08T13:51:14;20.20;81.50
44894;DHT22;30625;52.206;21.030;2023-08-08T13:53:39;20.00;83.40
44894;DHT22;30625;52.206;21.030;2023-08-08T13:56:05;19.90;82.50
44894;DHT22;30625;52.206;21.030;2023-08-08T13:58:30;19.80;84.40
44894;DHT22;30625;52.206;21.030;2023-08-08T14:00:56;19.50;83.80
44894;DHT22;30625;52.206;21.030;2023-08-08T14:03:24;19.50;85.40
44894;DHT22;30625;52.206;21.030;2023-08-08T14:05:50;19.50;87.70
44894;DHT22;30625;52.206;21.030;2023-08-08T14:08:18;19.50;86.90
44894;DHT22;30625;52.206;21.030;2023-08-08T14:10:43;19.50;85.40
44894;DHT22;30625;52.206;21.030;2023-08-08T14:13:09;19.50;86.60
44894;DHT22;30625;52.206;21.030;2023-08-08T14:15:36;19.60;85.70
44894;DHT22;30625;52.206;21.030;2023-08-08T14:18:02;19.70;84.40
44894;DHT22;30625;52.206;21.030;2023-08-08T14:20:28;19.70;85.00
44894;DHT22;30625;52.206;21.030;2023-08-08T14:22:53;19.70;85.10
44894;DHT22;30625;52.206;21.030;2023-08-08T14:25:19;19.70;86.70
44894;DHT22;30625;52.206;21.030;2023-08-08T14:27:44;19.80;88.30
44894;DHT22;30625;52.206;21.030;2023-08-08T14:30:10;19.80;86.20
44894;DHT22;30625;52.206;21.030;2023-08-08T14:32:35;19.80;87.60
44894;DHT22;30625;52.206;21.030;2023-08-08T14:35:02;19.90;86.40
44894;DHT22;30625;52.206;21.030;2023-08-08T14:37:28;20.10;86.40
44894;DHT22;30625;52.206;21.030;2023-08-08T14:39:53;20.20;86.20
44894;DHT22;30625;52.206;21.030;2023-08-08T14:42:19;20.50;85.60
44894;DHT22;30625;52.206;21.030;2023-08-08T14:44:45;20.80;85.50
44894;DHT22;30625;52.206;21.030;2023-08-08T14:47:10;20.90;82.80
44894;DHT22;30625;52.206;21.030;2023-08-08T14:49:36;21.20;85.00
44894;DHT22;30625;52.206;21.030;2023-08-08T14:52:02;21.10;81.90
44894;DHT22;30625;52.206;21.030;2023-08-08T14:54:28;21.00;82.60
44894;DHT22;30625;52.206;21.030;2023-08-08T14:56:54;20.90;82.40
44894;DHT22;30625;52.206;21.030;2023-08-08T14:59:20;20.80;85.00
44894;DHT22;30625;52.206;21.030;2023-08-08T15:01:45;20.90;84.80
44894;DHT22;30625;52.206;21.030;2023-08-08T15:04:11;20.80;82.70
44894;DHT22;30625;52.206;21.030;2023-08-08T15:06:37;20.70;83.00
44894;DHT22;30625;52.206;21.030;2023-08-08T15:09:05;20.60;83.60